sensor_id;sensor_type;location;lat;lon;timestamp;P1;P2;P0
70243;PMS7003;57634;51.136;17.024;2023-02-03T00:00:44;7;6;4
70243;PMS7003;57634;51.136;17.024;2023-02-03T00:03:51;6;6;3
70243;PMS7003;57634;51.136;17.024;2023-02-03T00:06:52;7;6;4
70243;PMS7003;57634;51.136;17.024;2023-02-03T00:10:22;7;4;2
70243;PMS7003;57634;51.136;17.024;2023-02-03T00:13:23;5;4;3
70243;PMS7003;57634;51.136;17.024;2023-02-03T00:16:26;7;5;3
70243;PMS7003;57634;51.136;17.024;2023-02-03T00:19:27;5;4;2
70243;PMS7003;57634;51.136;17.024;2023-02-03T00:22:28;5;4;2
70243;PMS7003;57634;51.136;17.024;2023-02-03T00:25:30;6;5;3
70243;PMS7003;57634;51.136;17.024;2023-02-03T00:28:32;5;4;3
70243;PMS7003;57634;51.136;17.024;2023-02-03T00:31:33;5;5;3
70243;PMS7003;57634;51.136;17.024;2023-02-03T00:34:35;3;3;3
70243;PMS7003;57634;51.136;17.024;2023-02-03T00:37:36;5;3;2
70243;PMS7003;57634;51.136;17.024;2023-02-03T00:40:38;5;4;2
70243;PMS7003;57634;51.136;17.024;2023-02-03T00:43:39;4;3;2
70243;PMS7003;57634;51.136;17.024;2023-02-03T00:46:40;5;3;2
70243;PMS7003;57634;51.136;17.024;2023-02-03T00:49:42;5;5;3
70243;PMS7003;57634;51.136;17.024;2023-02-03T00:52:43;4;3;2
70243;PMS7003;57634;51.136;17.024;2023-02-03T00:56:10;4;4;2
70243;PMS7003;57634;51.136;17.024;2023-02-03T00:59:12;6;6;4
70243;PMS7003;57634;51.136;17.024;2023-02-03T01:02:13;5;5;3
70243;PMS7003;57634;51.136;17.024;2023-02-03T01:05:16;7;5;3
70243;PMS7003;57634;51.136;17.024;2023-02-03T01:08:17;6;5;3
70243;PMS7003;57634;51.136;17.024;2023-02-03T01:11:20;4;3;2
70243;PMS7003;57634;51.136;17.024;2023-02-03T01:14:27;4;4;2
70243;PMS7003;57634;51.136;17.024;2023-02-03T01:17:28;2;2;1
70243;PMS7003;57634;51.136;17.024;2023-02-03T01:20:29;5;3;2
70243;PMS7003;57634;51.136;17.024;2023-02-03T01:23:30;5;4;2
70243;PMS7003;57634;51.136;17.024;2023-02-03T01:26:32;6;5;4
70243;PMS7003;57634;51.136;17.024;2023-02-03T01:29:33;5;4;2
70243;PMS7003;57634;51.136;17.024;2023-02-03T01:32:35;4;4;2
70243;PMS7003;57634;51.136;17.024;2023-02-03T01:36:02;5;4;2
70243;PMS7003;57634;51.136;17.024;2023-02-03T01:39:03;4;4;2
70243;PMS7003;57634;51.136;17.024;2023-02-03T01:42:07;7;5;3
70243;PMS7003;57634;51.136;17.024;2023-02-03T01:45:12;5;4;3
70243;PMS7003;57634;51.136;17.024;2023-02-03T01:48:13;4;3;2
70243;PMS7003;57634;51.136;17.024;2023-02-03T01:51:15;5;4;2
70243;PMS7003;57634;51.136;17.024;2023-02-03T01:57:31;4;4;3
70243;PMS7003;57634;51.136;17.024;2023-02-03T02:00:36;5;4;2
70243;PMS7003;57634;51.136;17.024;2023-02-03T02:03:41;4;3;2
70243;PMS7003;57634;51.136;17.024;2023-02-03T02:07:16;4;3;2
70243;PMS7003;57634;51.136;17.024;2023-02-03T02:10:17;4;3;2
70243;PMS7003;57634;51.136;17.024;2023-02-03T02:13:19;5;3;2
70243;PMS7003;57634;51.136;17.024;2023-02-03T02:17:10;7;4;2
70243;PMS7003;57634;51.136;17.024;2023-02-03T02:19:43;4;4;2
70243;PMS7003;57634;51.136;17.024;2023-02-03T02:36:13;5;4;3
70243;PMS7003;57634;51.136;17.024;2023-02-03T02:40:32;6;3;2
70243;PMS7003;57634;51.136;17.024;2023-02-03T02:46:18;2;2;2
70243;PMS7003;57634;51.136;17.024;2023-02-03T02:53:06;3;2;2
70243;PMS7003;57634;51.136;17.024;2023-02-03T02:56:12;5;4;2
70243;PMS7003;57634;51.136;17.024;2023-02-03T02:59:16;2;2;1
70243;PMS7003;57634;51.136;17.024;2023-02-03T03:02:17;3;2;2
70243;PMS7003;57634;51.136;17.024;2023-02-03T03:05:19;2;2;0
70243;PMS7003;57634;51.136;17.024;2023-02-03T03:08:22;2;2;0
70243;PMS7003;57634;51.136;17.024;2023-02-03T03:11:28;2;2;0
70243;PMS7003;57634;51.136;17.024;2023-02-03T03:14:36;3;2;2
70243;PMS7003;57634;51.136;17.024;2023-02-03T03:17:42;3;3;1
70243;PMS7003;57634;51.136;17.024;2023-02-03T03:21:18;1;0;0
70243;PMS7003;57634;51.136;17.024;2023-02-03T03:24:25;2;2;1
70243;PMS7003;57634;51.136;17.024;2023-02-03T03:27:31;4;2;0
70243;PMS7003;57634;51.136;17.024;2023-02-03T03:30:38;3;3;1
70243;PMS7003;57634;51.136;17.024;2023-02-03T03:33:40;2;2;1
70243;PMS7003;57634;51.136;17.024;2023-02-03T03:39:55;3;3;1
70243;PMS7003;57634;51.136;17.024;2023-02-03T03:43:27;5;3;2
70243;PMS7003;57634;51.136;17.024;2023-02-03T03:46:34;3;1;0
70243;PMS7003;57634;51.136;17.024;2023-02-03T03:49:44;3;3;2
70243;PMS7003;57634;51.136;17.024;2023-02-03T03:52:47;3;2;2
70243;PMS7003;57634;51.136;17.024;2023-02-03T03:55:50;4;3;1
70243;PMS7003;57634;51.136;17.024;2023-02-03T03:58:53;3;1;1
70243;PMS7003;57634;51.136;17.024;2023-02-03T04:01:57;3;2;1
70243;PMS7003;57634;51.136;17.024;2023-02-03T04:05:04;5;3;1
70243;PMS7003;57634;51.136;17.024;2023-02-03T04:08:32;3;3;1
70243;PMS7003;57634;51.136;17.024;2023-02-03T04:11:34;3;3;1
70243;PMS7003;57634;51.136;17.024;2023-02-03T04:14:47;2;2;0
70243;PMS7003;57634;51.136;17.024;2023-02-03T04:17:49;4;3;2
70243;PMS7003;57634;51.136;17.024;2023-02-03T04:20:50;3;3;2
70243;PMS7003;57634;51.136;17.024;2023-02-03T04:23:51;2;1;1
70243;PMS7003;57634;51.136;17.024;2023-02-03T04:26:52;2;2;1
70243;PMS7003;57634;51.136;17.024;2023-02-03T04:29:53;5;4;2
70243;PMS7003;57634;51.136;17.024;2023-02-03T04:32:55;2;2;2
70243;PMS7003;57634;51.136;17.024;2023-02-03T04:35:56;3;3;1
70243;PMS7003;57634;51.136;17.024;2023-02-03T04:38:58;3;3;1
70243;PMS7003;57634;51.136;17.024;2023-02-03T04:41:59;2;2;2
70243;PMS7003;57634;51.136;17.024;2023-02-03T04:45:27;5;3;3
70243;PMS7003;57634;51.136;17.024;2023-02-03T04:48:28;3;3;2
70243;PMS7003;57634;51.136;17.024;2023-02-03T04:51:29;4;4;3
70243;PMS7003;57634;51.136;17.024;2023-02-03T04:54:30;6;3;3
70243;PMS7003;57634;51.136;17.024;2023-02-03T04:57:31;3;3;2
70243;PMS7003;57634;51.136;17.024;2023-02-03T05:00:32;4;4;3
70243;PMS7003;57634;51.136;17.024;2023-02-03T05:03:34;3;3;2
70243;PMS7003;57634;51.136;17.024;2023-02-03T05:06:35;3;3;3
70243;PMS7003;57634;51.136;17.024;2023-02-03T05:09:36;5;3;2
70243;PMS7003;57634;51.136;17.024;2023-02-03T05:12:38;2;2;2
70243;PMS7003;57634;51.136;17.024;2023-02-03T05:15:39;2;2;1
70243;PMS7003;57634;51.136;17.024;2023-02-03T05:18:41;2;2;1
70243;PMS7003;57634;51.136;17.024;2023-02-03T05:21:42;2;2;1
70243;PMS7003;57634;51.136;17.024;2023-02-03T05:24:44;3;2;1
70243;PMS7003;57634;51.136;17.024;2023-02-03T05:27:45;2;2;1
70243;PMS7003;57634;51.136;17.024;2023-02-03T05:31:15;2;2;0
70243;PMS7003;57634;51.136;17.024;2023-02-03T05:34:16;3;2;1
70243;PMS7003;57634;51.136;17.024;2023-02-03T05:37:17;3;2;1
70243;PMS7003;57634;51.136;17.024;2023-02-03T05:40:18;3;2;0
70243;PMS7003;57634;51.136;17.024;2023-02-03T05:43:32;2;2;1
70243;PMS7003;57634;51.136;17.024;2023-02-03T05:46:34;4;3;0
70243;PMS7003;57634;51.136;17.024;2023-02-03T05:49:35;2;2;1
70243;PMS7003;57634;51.136;17.024;2023-02-03T05:52:41;1;0;0
70243;PMS7003;57634;51.136;17.024;2023-02-03T05:55:43;1;1;0
70243;PMS7003;57634;51.136;17.024;2023-02-03T05:58:44;0;0;0
70243;PMS7003;57634;51.136;17.024;2023-02-03T06:01:45;2;2;1
70243;PMS7003;57634;51.136;17.024;2023-02-03T06:05:14;1;1;0
70243;PMS7003;57634;51.136;17.024;2023-02-03T06:08:16;2;2;2
70243;PMS7003;57634;51.136;17.024;2023-02-03T06:11:17;3;2;1
70243;PMS7003;57634;51.136;17.024;2023-02-03T06:14:19;2;2;2
70243;PMS7003;57634;51.136;17.024;2023-02-03T06:17:20;2;2;2
70243;PMS7003;57634;51.136;17.024;2023-02-03T06:20:22;4;3;2
70243;PMS7003;57634;51.136;17.024;2023-02-03T06:23:23;4;1;1
70243;PMS7003;57634;51.136;17.024;2023-02-03T06:26:24;2;2;1
70243;PMS7003;57634;51.136;17.024;2023-02-03T06:29:25;3;2;1
70243;PMS7003;57634;51.136;17.024;2023-02-03T06:32:27;2;2;2
70243;PMS7003;57634;51.136;17.024;2023-02-03T06:35:29;2;2;1
70243;PMS7003;57634;51.136;17.024;2023-02-03T06:38:30;3;1;0
70243;PMS7003;57634;51.136;17.024;2023-02-03T06:41:31;2;2;1
70243;PMS7003;57634;51.136;17.024;2023-02-03T06:44:33;3;2;2
70243;PMS7003;57634;51.136;17.024;2023-02-03T06:47:37;5;4;2
70243;PMS7003;57634;51.136;17.024;2023-02-03T06:51:06;3;3;2
70243;PMS7003;57634;51.136;17.024;2023-02-03T06:54:07;3;2;2
70243;PMS7003;57634;51.136;17.024;2023-02-03T06:57:08;2;2;1
70243;PMS7003;57634;51.136;17.024;2023-02-03T07:00:10;3;2;1
70243;PMS7003;57634;51.136;17.024;2023-02-03T07:03:15;1;0;0
70243;PMS7003;57634;51.136;17.024;2023-02-03T07:06:16;2;1;0
70243;PMS7003;57634;51.136;17.024;2023-02-03T07:09:18;1;1;0
70243;PMS7003;57634;51.136;17.024;2023-02-03T07:12:19;2;1;0
70243;PMS7003;57634;51.136;17.024;2023-02-03T07:15:21;3;2;0
70243;PMS7003;57634;51.136;17.024;2023-02-03T07:18:22;2;2;1
70243;PMS7003;57634;51.136;17.024;2023-02-03T07:21:26;2;2;1
70243;PMS7003;57634;51.136;17.024;2023-02-03T07:24:27;1;1;1
70243;PMS7003;57634;51.136;17.024;2023-02-03T07:27:28;2;1;1
70243;PMS7003;57634;51.136;17.024;2023-02-03T07:30:57;2;2;1
70243;PMS7003;57634;51.136;17.024;2023-02-03T07:34:00;2;2;1
70243;PMS7003;57634;51.136;17.024;2023-02-03T07:37:02;2;2;1
70243;PMS7003;57634;51.136;17.024;2023-02-03T07:40:04;2;1;0
70243;PMS7003;57634;51.136;17.024;2023-02-03T07:43:05;2;1;0
70243;PMS7003;57634;51.136;17.024;2023-02-03T07:46:07;0;0;0
70243;PMS7003;57634;51.136;17.024;2023-02-03T07:49:09;1;1;0
70243;PMS7003;57634;51.136;17.024;2023-02-03T07:52:11;3;2;0
70243;PMS7003;57634;51.136;17.024;2023-02-03T07:55:12;3;2;1
70243;PMS7003;57634;51.136;17.024;2023-02-03T07:58:14;2;1;0
70243;PMS7003;57634;51.136;17.024;2023-02-03T08:01:16;1;0;0
70243;PMS7003;57634;51.136;17.024;2023-02-03T08:04:18;2;2;1
70243;PMS7003;57634;51.136;17.024;2023-02-03T08:07:20;3;3;1
70243;PMS7003;57634;51.136;17.024;2023-02-03T08:10:50;2;2;1
70243;PMS7003;57634;51.136;17.024;2023-02-03T08:13:51;1;0;0
70243;PMS7003;57634;51.136;17.024;2023-02-03T08:16:53;5;3;1
70243;PMS7003;57634;51.136;17.024;2023-02-03T08:19:55;3;2;1
70243;PMS7003;57634;51.136;17.024;2023-02-03T08:22:56;2;2;1
70243;PMS7003;57634;51.136;17.024;2023-02-03T08:25:57;4;3;1
70243;PMS7003;57634;51.136;17.024;2023-02-03T08:28:58;4;2;2
70243;PMS7003;57634;51.136;17.024;2023-02-03T08:32:00;4;2;1
70243;PMS7003;57634;51.136;17.024;2023-02-03T08:35:01;2;2;1
70243;PMS7003;57634;51.136;17.024;2023-02-03T08:38:03;3;2;1
70243;PMS7003;57634;51.136;17.024;2023-02-03T08:41:09;3;1;0
70243;PMS7003;57634;51.136;17.024;2023-02-03T08:44:12;2;1;1
70243;PMS7003;57634;51.136;17.024;2023-02-03T08:47:14;0;0;0
70243;PMS7003;57634;51.136;17.024;2023-02-03T08:50:43;4;3;1
70243;PMS7003;57634;51.136;17.024;2023-02-03T08:53:52;2;2;1
70243;PMS7003;57634;51.136;17.024;2023-02-03T08:56:53;2;1;1
70243;PMS7003;57634;51.136;17.024;2023-02-03T08:59:55;1;1;0
70243;PMS7003;57634;51.136;17.024;2023-02-03T09:02:56;4;1;0
70243;PMS7003;57634;51.136;17.024;2023-02-03T09:05:57;1;1;1
70243;PMS7003;57634;51.136;17.024;2023-02-03T09:09:00;1;1;1
70243;PMS7003;57634;51.136;17.024;2023-02-03T09:12:01;2;1;1
70243;PMS7003;57634;51.136;17.024;2023-02-03T09:15:05;2;2;1
70243;PMS7003;57634;51.136;17.024;2023-02-03T09:18:07;0;0;0
70243;PMS7003;57634;51.136;17.024;2023-02-03T09:21:09;1;1;0
70243;PMS7003;57634;51.136;17.024;2023-02-03T09:24:40;1;1;0
70243;PMS7003;57634;51.136;17.024;2023-02-03T09:27:42;2;1;1
70243;PMS7003;57634;51.136;17.024;2023-02-03T09:30:44;2;1;1
70243;PMS7003;57634;51.136;17.024;2023-02-03T09:33:47;3;1;0
70243;PMS7003;57634;51.136;17.024;2023-02-03T09:36:48;1;1;0
70243;PMS7003;57634;51.136;17.024;2023-02-03T09:39:51;2;2;1
70243;PMS7003;57634;51.136;17.024;2023-02-03T09:46:11;3;3;2
70243;PMS7003;57634;51.136;17.024;2023-02-03T09:52:56;4;3;2
70243;PMS7003;57634;51.136;17.024;2023-02-03T09:56:02;2;2;1
70243;PMS7003;57634;51.136;17.024;2023-02-03T09:59:04;5;4;2
70243;PMS7003;57634;51.136;17.024;2023-02-03T10:05:26;3;2;1
70243;PMS7003;57634;51.136;17.024;2023-02-03T10:09:04;5;5;3
70243;PMS7003;57634;51.136;17.024;2023-02-03T10:18:43;2;2;1
70243;PMS7003;57634;51.136;17.024;2023-02-03T10:21:55;4;3;1
70243;PMS7003;57634;51.136;17.024;2023-02-03T10:28:38;6;4;3
70243;PMS7003;57634;51.136;17.024;2023-02-03T10:31:42;4;3;2
70243;PMS7003;57634;51.136;17.024;2023-02-03T10:34:47;5;4;3
70243;PMS7003;57634;51.136;17.024;2023-02-03T10:37:50;5;5;4
70243;PMS7003;57634;51.136;17.024;2023-02-03T10:40:57;4;4;3
70243;PMS7003;57634;51.136;17.024;2023-02-03T10:43:59;5;3;2
70243;PMS7003;57634;51.136;17.024;2023-02-03T10:47:42;5;4;3
70243;PMS7003;57634;51.136;17.024;2023-02-03T10:50:43;5;3;2
70243;PMS7003;57634;51.136;17.024;2023-02-03T10:53:52;4;3;2
70243;PMS7003;57634;51.136;17.024;2023-02-03T10:56:54;4;4;3
70243;PMS7003;57634;51.136;17.024;2023-02-03T11:00:06;3;2;2
70243;PMS7003;57634;51.136;17.024;2023-02-03T11:06:56;3;3;2
70243;PMS7003;57634;51.136;17.024;2023-02-03T11:10:02;5;3;2
70243;PMS7003;57634;51.136;17.024;2023-02-03T11:16:18;4;4;2
70243;PMS7003;57634;51.136;17.024;2023-02-03T11:19:20;4;4;3
70243;PMS7003;57634;51.136;17.024;2023-02-03T11:22:27;3;2;1
70243;PMS7003;57634;51.136;17.024;2023-02-03T11:25:34;2;2;1
70243;PMS7003;57634;51.136;17.024;2023-02-03T11:29:02;2;2;1
70243;PMS7003;57634;51.136;17.024;2023-02-03T11:35:26;1;1;1
70243;PMS7003;57634;51.136;17.024;2023-02-03T11:38:31;5;3;2
70243;PMS7003;57634;51.136;17.024;2023-02-03T11:41:37;3;3;1
70243;PMS7003;57634;51.136;17.024;2023-02-03T11:44:39;3;3;1
70243;PMS7003;57634;51.136;17.024;2023-02-03T11:51:25;2;2;1
70243;PMS7003;57634;51.136;17.024;2023-02-03T11:54:45;3;3;1
70243;PMS7003;57634;51.136;17.024;2023-02-03T11:57:49;3;3;2
70243;PMS7003;57634;51.136;17.024;2023-02-03T12:04:54;1;1;0
70243;PMS7003;57634;51.136;17.024;2023-02-03T12:11:13;1;0;0
70243;PMS7003;57634;51.136;17.024;2023-02-03T12:27:48;0;0;0
70243;PMS7003;57634;51.136;17.024;2023-02-03T12:35:00;2;2;1
70243;PMS7003;57634;51.136;17.024;2023-02-03T12:37:56;14;12;8
70243;PMS7003;57634;51.136;17.024;2023-02-03T12:41:12;8;7;3
70243;PMS7003;57634;51.136;17.024;2023-02-03T12:44:46;2;2;1
70243;PMS7003;57634;51.136;17.024;2023-02-03T12:48:03;0;0;0
70243;PMS7003;57634;51.136;17.024;2023-02-03T12:51:05;0;0;0
70243;PMS7003;57634;51.136;17.024;2023-02-03T13:01:15;0;0;0
70243;PMS7003;57634;51.136;17.024;2023-02-03T13:04:20;0;0;0
70243;PMS7003;57634;51.136;17.024;2023-02-03T13:10:48;0;0;0
70243;PMS7003;57634;51.136;17.024;2023-02-03T13:17:42;2;0;0
70243;PMS7003;57634;51.136;17.024;2023-02-03T13:20:48;0;0;0
70243;PMS7003;57634;51.136;17.024;2023-02-03T13:23:50;0;0;0
70243;PMS7003;57634;51.136;17.024;2023-02-03T13:33:45;0;0;0
70243;PMS7003;57634;51.136;17.024;2023-02-03T13:37:01;1;1;0
70243;PMS7003;57634;51.136;17.024;2023-02-03T13:43:22;2;1;1
70243;PMS7003;57634;51.136;17.024;2023-02-03T13:46:59;2;1;0
70243;PMS7003;57634;51.136;17.024;2023-02-03T13:50:04;1;1;0
70243;PMS7003;57634;51.136;17.024;2023-02-03T13:53:30;0;0;0
70243;PMS7003;57634;51.136;17.024;2023-02-03T13:56:22;0;0;0
70243;PMS7003;57634;51.136;17.024;2023-02-03T14:02:43;0;0;0
70243;PMS7003;57634;51.136;17.024;2023-02-03T14:07:01;0;0;0
70243;PMS7003;57634;51.136;17.024;2023-02-03T14:09:34;0;0;0
70243;PMS7003;57634;51.136;17.024;2023-02-03T14:16:20;0;0;0
70243;PMS7003;57634;51.136;17.024;2023-02-03T14:22:44;1;0;0
70243;PMS7003;57634;51.136;17.024;2023-02-03T14:25:47;0;0;0
70243;PMS7003;57634;51.136;17.024;2023-02-03T14:28:52;0;0;0
70243;PMS7003;57634;51.136;17.024;2023-02-03T14:31:58;0;0;0
70243;PMS7003;57634;51.136;17.024;2023-02-03T14:35:01;0;0;0
70243;PMS7003;57634;51.136;17.024;2023-02-03T14:38:13;0;0;0
70243;PMS7003;57634;51.136;17.024;2023-02-03T15:04:42;0;0;0
70243;PMS7003;57634;51.136;17.024;2023-02-03T15:07:46;0;0;0
70243;PMS7003;57634;51.136;17.024;2023-02-03T15:14:27;1;0;0
70243;PMS7003;57634;51.136;17.024;2023-02-03T15:17:33;0;0;0
70243;PMS7003;57634;51.136;17.024;2023-02-03T15:20:37;0;0;0
70243;PMS7003;57634;51.136;17.024;2023-02-03T15:23:44;0;0;0
70243;PMS7003;57634;51.136;17.024;2023-02-03T15:26:53;1;1;0
70243;PMS7003;57634;51.136;17.024;2023-02-03T15:29:56;1;0;0
70243;PMS7003;57634;51.136;17.024;2023-02-03T15:33:27;0;0;0
70243;PMS7003;57634;51.136;17.024;2023-02-03T15:36:37;2;0;0
70243;PMS7003;57634;51.136;17.024;2023-02-03T15:39:52;0;0;0
70243;PMS7003;57634;51.136;17.024;2023-02-03T15:43:02;1;1;0
70243;PMS7003;57634;51.136;17.024;2023-02-03T15:46:15;1;0;0
70243;PMS7003;57634;51.136;17.024;2023-02-03T15:49:53;2;1;1
70243;PMS7003;57634;51.136;17.024;2023-02-03T15:53:03;0;0;0
70243;PMS7003;57634;51.136;17.024;2023-02-03T15:56:10;0;0;0
70243;PMS7003;57634;51.136;17.024;2023-02-03T15:59:20;1;0;0
70243;PMS7003;57634;51.136;17.024;2023-02-03T16:02:26;0;0;0
70243;PMS7003;57634;51.136;17.024;2023-02-03T16:05:33;1;0;0
70243;PMS7003;57634;51.136;17.024;2023-02-03T16:09:05;1;1;0
70243;PMS7003;57634;51.136;17.024;2023-02-03T16:17:35;0;0;0
70243;PMS7003;57634;51.136;17.024;2023-02-03T16:20:41;0;0;0
70243;PMS7003;57634;51.136;17.024;2023-02-03T16:23:49;0;0;0
70243;PMS7003;57634;51.136;17.024;2023-02-03T16:26:52;0;0;0
70243;PMS7003;57634;51.136;17.024;2023-02-03T16:30:40;1;0;0
70243;PMS7003;57634;51.136;17.024;2023-02-03T16:33:45;0;0;0
70243;PMS7003;57634;51.136;17.024;2023-02-03T16:36:59;0;0;0
70243;PMS7003;57634;51.136;17.024;2023-02-03T16:40:16;0;0;0
70243;PMS7003;57634;51.136;17.024;2023-02-03T16:43:32;0;0;0
70243;PMS7003;57634;51.136;17.024;2023-02-03T16:50:39;0;0;0
70243;PMS7003;57634;51.136;17.024;2023-02-03T16:53:53;0;0;0
70243;PMS7003;57634;51.136;17.024;2023-02-03T16:56:54;0;0;0
70243;PMS7003;57634;51.136;17.024;2023-02-03T16:59:55;2;0;0
70243;PMS7003;57634;51.136;17.024;2023-02-03T17:02:56;3;3;1
70243;PMS7003;57634;51.136;17.024;2023-02-03T17:06:24;1;0;0
70243;PMS7003;57634;51.136;17.024;2023-02-03T17:09:26;1;1;0
70243;PMS7003;57634;51.136;17.024;2023-02-03T17:12:27;1;0;0
70243;PMS7003;57634;51.136;17.024;2023-02-03T17:15:33;0;0;0
70243;PMS7003;57634;51.136;17.024;2023-02-03T17:18:39;1;1;0
70243;PMS7003;57634;51.136;17.024;2023-02-03T17:21:41;1;0;0
70243;PMS7003;57634;51.136;17.024;2023-02-03T17:24:42;1;0;0
70243;PMS7003;57634;51.136;17.024;2023-02-03T17:27:45;2;2;0
70243;PMS7003;57634;51.136;17.024;2023-02-03T17:34:27;1;1;0
70243;PMS7003;57634;51.136;17.024;2023-02-03T17:37:31;1;0;0
70243;PMS7003;57634;51.136;17.024;2023-02-03T17:40:33;1;1;0
70243;PMS7003;57634;51.136;17.024;2023-02-03T17:43:34;4;1;0
70243;PMS7003;57634;51.136;17.024;2023-02-03T17:46:36;1;0;0
70243;PMS7003;57634;51.136;17.024;2023-02-03T17:49:38;0;0;0
70243;PMS7003;57634;51.136;17.024;2023-02-03T17:52:39;2;0;0
70243;PMS7003;57634;51.136;17.024;2023-02-03T17:55:40;2;1;0
70243;PMS7003;57634;51.136;17.024;2023-02-03T17:58:41;2;0;0
70243;PMS7003;57634;51.136;17.024;2023-02-03T18:01:43;0;0;0
70243;PMS7003;57634;51.136;17.024;2023-02-03T18:04:46;2;1;0
70243;PMS7003;57634;51.136;17.024;2023-02-03T18:07:47;1;0;0
70243;PMS7003;57634;51.136;17.024;2023-02-03T18:10:49;4;2;0
70243;PMS7003;57634;51.136;17.024;2023-02-03T18:13:50;3;1;0
70243;PMS7003;57634;51.136;17.024;2023-02-03T18:17:17;1;0;0
70243;PMS7003;57634;51.136;17.024;2023-02-03T18:20:18;5;4;3
70243;PMS7003;57634;51.136;17.024;2023-02-03T18:23:19;8;5;3
70243;PMS7003;57634;51.136;17.024;2023-02-03T18:26:21;2;2;1
70243;PMS7003;57634;51.136;17.024;2023-02-03T18:29:23;3;1;0
70243;PMS7003;57634;51.136;17.024;2023-02-03T18:32:26;2;1;0
70243;PMS7003;57634;51.136;17.024;2023-02-03T18:35:28;1;1;0
70243;PMS7003;57634;51.136;17.024;2023-02-03T18:38:30;0;0;0
70243;PMS7003;57634;51.136;17.024;2023-02-03T18:41:36;2;1;0
70243;PMS7003;57634;51.136;17.024;2023-02-03T18:44:39;1;0;0
70243;PMS7003;57634;51.136;17.024;2023-02-03T18:47:42;3;0;0
70243;PMS7003;57634;51.136;17.024;2023-02-03T18:50:43;1;1;0
70243;PMS7003;57634;51.136;17.024;2023-02-03T18:54:11;1;1;0
70243;PMS7003;57634;51.136;17.024;2023-02-03T18:57:13;0;0;0
70243;PMS7003;57634;51.136;17.024;2023-02-03T19:00:16;2;2;1
70243;PMS7003;57634;51.136;17.024;2023-02-03T19:03:17;1;0;0
70243;PMS7003;57634;51.136;17.024;2023-02-03T19:06:22;2;2;0
70243;PMS7003;57634;51.136;17.024;2023-02-03T19:09:24;2;1;0
70243;PMS7003;57634;51.136;17.024;2023-02-03T19:12:26;1;1;0
70243;PMS7003;57634;51.136;17.024;2023-02-03T19:15:28;1;1;0
70243;PMS7003;57634;51.136;17.024;2023-02-03T19:18:29;1;1;0
70243;PMS7003;57634;51.136;17.024;2023-02-03T19:21:32;2;1;0
70243;PMS7003;57634;51.136;17.024;2023-02-03T19:24:33;1;0;0
70243;PMS7003;57634;51.136;17.024;2023-02-03T19:27:34;2;1;0
70243;PMS7003;57634;51.136;17.024;2023-02-03T19:30:36;0;0;0
70243;PMS7003;57634;51.136;17.024;2023-02-03T19:34:04;2;0;0
70243;PMS7003;57634;51.136;17.024;2023-02-03T19:37:05;3;1;0
70243;PMS7003;57634;51.136;17.024;2023-02-03T19:40:07;1;1;0
70243;PMS7003;57634;51.136;17.024;2023-02-03T19:43:09;4;3;0
70243;PMS7003;57634;51.136;17.024;2023-02-03T19:46:13;4;2;0
70243;PMS7003;57634;51.136;17.024;2023-02-03T19:49:15;2;2;0
70243;PMS7003;57634;51.136;17.024;2023-02-03T19:52:16;9;6;4
70243;PMS7003;57634;51.136;17.024;2023-02-03T19:55:18;4;2;1
70243;PMS7003;57634;51.136;17.024;2023-02-03T19:58:19;3;2;0
70243;PMS7003;57634;51.136;17.024;2023-02-03T20:01:20;4;2;1
70243;PMS7003;57634;51.136;17.024;2023-02-03T20:04:23;4;3;1
70243;PMS7003;57634;51.136;17.024;2023-02-03T20:07:24;4;2;1
70243;PMS7003;57634;51.136;17.024;2023-02-03T20:10:58;3;3;2
70243;PMS7003;57634;51.136;17.024;2023-02-03T20:14:02;7;4;2
70243;PMS7003;57634;51.136;17.024;2023-02-03T20:17:04;5;4;2
70243;PMS7003;57634;51.136;17.024;2023-02-03T20:20:07;2;2;1
70243;PMS7003;57634;51.136;17.024;2023-02-03T20:23:09;4;3;1
70243;PMS7003;57634;51.136;17.024;2023-02-03T20:26:10;3;1;0
70243;PMS7003;57634;51.136;17.024;2023-02-03T20:29:13;3;1;0
70243;PMS7003;57634;51.136;17.024;2023-02-03T20:32:14;1;0;0
70243;PMS7003;57634;51.136;17.024;2023-02-03T20:35:16;2;1;0
70243;PMS7003;57634;51.136;17.024;2023-02-03T20:38:18;2;1;0
70243;PMS7003;57634;51.136;17.024;2023-02-03T20:41:19;2;1;0
70243;PMS7003;57634;51.136;17.024;2023-02-03T20:44:21;1;1;0
70243;PMS7003;57634;51.136;17.024;2023-02-03T20:47:23;3;2;1
70243;PMS7003;57634;51.136;17.024;2023-02-03T20:50:51;2;2;0
70243;PMS7003;57634;51.136;17.024;2023-02-03T20:53:52;1;1;0
70243;PMS7003;57634;51.136;17.024;2023-02-03T20:56:56;2;1;0
70243;PMS7003;57634;51.136;17.024;2023-02-03T20:59:57;1;1;0
70243;PMS7003;57634;51.136;17.024;2023-02-03T21:02:58;3;3;1
70243;PMS7003;57634;51.136;17.024;2023-02-03T21:06:12;2;2;1
70243;PMS7003;57634;51.136;17.024;2023-02-03T21:09:18;2;1;0
70243;PMS7003;57634;51.136;17.024;2023-02-03T21:12:21;2;1;0
70243;PMS7003;57634;51.136;17.024;2023-02-03T21:15:25;3;2;0
70243;PMS7003;57634;51.136;17.024;2023-02-03T21:18:56;3;3;1
70243;PMS7003;57634;51.136;17.024;2023-02-03T21:22:45;3;1;1
70243;PMS7003;57634;51.136;17.024;2023-02-03T21:25:37;1;1;1
70243;PMS7003;57634;51.136;17.024;2023-02-03T21:28:30;2;1;1
70243;PMS7003;57634;51.136;17.024;2023-02-03T21:31:32;3;2;1
70243;PMS7003;57634;51.136;17.024;2023-02-03T21:34:34;1;1;1
70243;PMS7003;57634;51.136;17.024;2023-02-03T21:37:38;1;1;0
70243;PMS7003;57634;51.136;17.024;2023-02-03T21:41:26;4;3;1
70243;PMS7003;57634;51.136;17.024;2023-02-03T21:47:31;2;1;0
70243;PMS7003;57634;51.136;17.024;2023-02-03T21:50:34;1;1;1
70243;PMS7003;57634;51.136;17.024;2023-02-03T21:53:40;1;1;0
70243;PMS7003;57634;51.136;17.024;2023-02-03T21:57:21;1;1;0
70243;PMS7003;57634;51.136;17.024;2023-02-03T22:03:38;3;1;0
70243;PMS7003;57634;51.136;17.024;2023-02-03T22:06:45;1;1;0
70243;PMS7003;57634;51.136;17.024;2023-02-03T22:09:53;0;0;0
70243;PMS7003;57634;51.136;17.024;2023-02-03T22:12:55;3;0;0
70243;PMS7003;57634;51.136;17.024;2023-02-03T22:15:57;0;0;0
70243;PMS7003;57634;51.136;17.024;2023-02-03T22:18:58;0;0;0
70243;PMS7003;57634;51.136;17.024;2023-02-03T22:22:27;1;0;0
70243;PMS7003;57634;51.136;17.024;2023-02-03T22:25:31;2;2;1
70243;PMS7003;57634;51.136;17.024;2023-02-03T22:28:35;1;0;0
70243;PMS7003;57634;51.136;17.024;2023-02-03T22:31:37;0;0;0
70243;PMS7003;57634;51.136;17.024;2023-02-03T22:34:41;1;0;0
70243;PMS7003;57634;51.136;17.024;2023-02-03T22:37:43;0;0;0
70243;PMS7003;57634;51.136;17.024;2023-02-03T22:40:44;0;0;0
70243;PMS7003;57634;51.136;17.024;2023-02-03T22:43:46;1;1;0
70243;PMS7003;57634;51.136;17.024;2023-02-03T22:46:47;0;0;0
70243;PMS7003;57634;51.136;17.024;2023-02-03T22:49:49;0;0;0
70243;PMS7003;57634;51.136;17.024;2023-02-03T22:52:50;0;0;0
70243;PMS7003;57634;51.136;17.024;2023-02-03T22:55:53;1;0;0
70243;PMS7003;57634;51.136;17.024;2023-02-03T22:59:21;0;0;0
70243;PMS7003;57634;51.136;17.024;2023-02-03T23:02:22;0;0;0
70243;PMS7003;57634;51.136;17.024;2023-02-03T23:05:24;0;0;0
70243;PMS7003;57634;51.136;17.024;2023-02-03T23:08:26;0;0;0
70243;PMS7003;57634;51.136;17.024;2023-02-03T23:11:28;0;0;0
70243;PMS7003;57634;51.136;17.024;2023-02-03T23:14:29;0;0;0
70243;PMS7003;57634;51.136;17.024;2023-02-03T23:17:31;0;0;0
70243;PMS7003;57634;51.136;17.024;2023-02-03T23:20:33;0;0;0
70243;PMS7003;57634;51.136;17.024;2023-02-03T23:23:34;0;0;0